アスタナ の空港の天気 - METARとTAF

アスタナ国際空港 ( UACC / TSE ) - カザフスタン アスタナ
飛行場実況気象(Metar)
観測時間04/26 17:00 QYZT (04/26 11:00 UTC)
風向・風速西 7m/s
視程10km以上
天気現象
少しの雲 雲底高度 910m
全天の8割程度の雲 雲底高度 1620m
気温10℃
湿度34%
気圧1023hPa
METARUACC 261100Z 27007MPS 230V300 9999 FEW030CB BKN053 10/M05 Q1023 R22/0///70 NOSIG RMK QFE735/0981
過去の天気等 Google飛行場航空写真 Wunderground天気予報

過去48時間のMETAR

飛行場予報(TAF)
発表時間: 4/26 11:00 QYZT (4/26 05:00 UTC)
予報対象時間: 26日12時 QYZT ~ 27日12時 QYZT
風向・風速西南西 8m/s
視程10km以上
全天の8割程度の雲 雲底高度 1,220m
全天の8割程度の雲 雲底高度 3,050m
26日12時 QYZT ~ 26日18時 QYZT に一時的に
風向・風速西 9m/s 瞬間風速 14m/s
視程5,000m
天気現象弱いしゅう雨
全天の4割程度の雲 雲底高度 210m
全天の8割程度の積乱雲 雲底高度 460m
26日21時 QYZT ~ 26日23時 QYZT に徐々に
風向・風速南南西 6m/s
26日21時 QYZT ~ 27日6時 QYZT に一時的に
視程3,000m
天気現象もや
全天の4割程度の雲 雲底高度 150m
27日6時 QYZT ~ 27日12時 QYZT に一時的に
視程5,000m
天気現象弱いしゅう雨
全天の4割程度の雲 雲底高度 210m
全天の8割程度の積乱雲 雲底高度 610m
TAF UACC 260500Z 2606/2706 25008MPS 9999 BKN040 BKN100 TX08/2609Z TN00/2624Z
TEMPO 2606/2612 26009G14MPS 5000 -SHRA SCT007 BKN015CB
BECMG 2615/2617 21006MPS
TEMPO 2615/2624 3000 BR SCT005
TEMPO 2700/2706 5000 -SHRA SCT007 BKN020CB